Time;durP1;ratioP1;P1;durP2;ratioP2;P2;SDS_P1;SDS_P2;PMS_P1;PMS_P2;Temp;Humidity;BMP_temperature;BMP_pressure;BME280_temperature;BME280_humidity;BME280_pressure;Samples;Min_cycle;Max_cycle;Signal;HPM_P1;HPM_P2
2021/06/24 05:31:45;;;;;;;25.97;21.20;;;;;;;22.35;78.23;100433.61;1777051;75;70709;-77
2021/06/24 05:34:12;;;;;;;29.65;20.80;;;;;;;22.49;77.95;100432.31;1767773;79;25914;-77
2021/06/24 05:36:39;;;;;;;28.02;19.42;;;;;;;22.61;77.66;100433.13;1774022;78;25810;-77
2021/06/24 05:39:05;;;;;;;23.85;19.32;;;;;;;22.69;77.48;100421.73;1775322;78;27425;-76
2021/06/24 05:41:33;;;;;;;20.43;18.32;;;;;;;22.81;77.11;100421.20;1774381;79;26015;-76
2021/06/24 05:44:00;;;;;;;22.30;18.80;;;;;;;22.89;76.62;100422.80;1768972;79;25840;-77
2021/06/24 05:46:28;;;;;;;19.55;17.35;;;;;;;23.02;76.41;100425.97;1767290;79;26516;-77
2021/06/24 05:48:55;;;;;;;21.93;18.77;;;;;;;23.11;76.15;100424.45;1770507;79;26435;-76
2021/06/24 05:51:25;;;;;;;20.48;18.12;;;;;;;23.19;75.67;100423.88;1758595;79;27291;-76
2021/06/24 05:53:51;;;;;;;;;;;;;;;23.30;75.71;100424.67;1705485;82;25737;-77
2021/06/24 05:56:24;;;;;;;20.70;16.95;;;;;;;23.36;75.04;100429.23;1705685;81;25662;-77
2021/06/24 05:58:47;;;;;;;21.00;17.23;;;;;;;23.38;75.18;100426.05;1707564;82;25941;-77
2021/06/24 06:01:15;;;;;;;22.00;16.97;;;;;;;23.47;74.94;100427.84;1704715;79;25773;-76
2021/06/24 06:03:41;;;;;;;21.68;17.77;;;;;;;23.54;74.85;100423.70;1700944;82;27357;-77
2021/06/24 06:06:09;;;;;;;19.35;16.48;;;;;;;23.66;74.72;100415.61;1716493;81;25828;-77
2021/06/24 06:08:35;;;;;;;20.45;16.42;;;;;;;23.81;74.77;100410.87;1696813;81;25929;-76
2021/06/24 06:11:03;;;;;;;24.45;16.15;;;;;;;24.05;74.91;100423.08;1690243;82;27794;-76
2021/06/24 06:13:29;;;;;;;20.62;15.20;;;;;;;24.27;74.38;100434.09;1774848;79;25423;-76
2021/06/24 06:15:57;;;;;;;17.95;15.60;;;;;;;24.41;73.69;100432.05;1771610;79;27260;-75
2021/06/24 06:18:26;;;;;;;18.55;15.70;;;;;;;24.51;73.14;100417.22;1780991;78;25663;-76
2021/06/24 06:20:54;;;;;;;;;;;;;;;24.61;72.75;100414.42;1773926;78;25949;-76
2021/06/24 06:23:23;;;;;;;25.80;15.80;;;;;;;24.70;72.19;100404.91;1774032;79;25986;-77
2021/06/24 06:25:50;;;;;;;26.48;15.80;;;;;;;24.76;72.11;100395.79;1778147;79;25692;-76
2021/06/24 06:28:19;;;;;;;18.75;15.15;;;;;;;24.84;71.65;100390.98;1773036;79;27420;-77
2021/06/24 06:30:48;;;;;;;17.65;13.80;;;;;;;24.90;71.45;100399.06;1777006;79;25922;-77
2021/06/24 06:33:16;;;;;;;;;;;;;;;24.97;71.03;100401.78;1787035;79;25906;-77
2021/06/24 06:35:44;;;;;;;20.10;14.83;;;;;;;25.01;70.25;100392.06;1767581;78;25737;-77
2021/06/24 06:38:12;;;;;;;21.97;15.15;;;;;;;24.97;70.19;100387.94;1758683;78;25855;-77
2021/06/24 06:40:41;;;;;;;21.27;14.65;;;;;;;25.02;70.30;100395.64;1761657;79;27306;-75
2021/06/24 06:43:11;;;;;;;16.67;14.95;;;;;;;25.03;69.83;100388.90;1763848;79;25870;-77
2021/06/24 06:45:39;;;;;;;26.73;15.28;;;;;;;25.05;69.94;100373.48;1751243;79;25896;-64
2021/06/24 06:48:06;;;;;;;23.25;15.45;;;;;;;25.13;70.19;100360.36;1768700;79;25784;-65
2021/06/24 06:50:33;;;;;;;19.77;14.78;;;;;;;25.21;69.74;100358.34;1768935;78;25679;-65
2021/06/24 06:52:59;;;;;;;19.12;15.63;;;;;;;25.24;69.66;100361.68;1770409;79;27387;-62
2021/06/24 06:55:30;;;;;;;23.35;15.95;;;;;;;25.26;69.29;100368.40;1767998;79;25693;-62
2021/06/24 06:57:59;;;;;;;15.72;13.80;;;;;;;25.28;69.09;100356.92;1770349;78;25780;-62
2021/06/24 07:00:29;;;;;;;17.02;13.93;;;;;;;25.29;68.68;100356.52;1760460;79;27747;-64
2021/06/24 07:02:57;;;;;;;15.98;14.38;;;;;;;25.24;68.39;100354.16;1776786;78;25693;-65
2021/06/24 07:05:24;;;;;;;15.25;13.75;;;;;;;25.19;68.28;100361.52;1775456;78;27503;-65
2021/06/24 07:07:52;;;;;;;14.38;12.98;;;;;;;25.10;67.89;100371.66;1771487;79;26518;-65
2021/06/24 07:10:19;;;;;;;22.00;14.30;;;;;;;25.01;67.87;100373.30;1764627;79;25695;-65
2021/06/24 07:12:47;;;;;;;16.12;14.50;;;;;;;24.93;68.02;100378.89;1762344;78;26236;-66
2021/06/24 07:15:15;;;;;;;21.62;15.15;;;;;;;24.86;68.21;100361.54;1754353;79;25878;-66
2021/06/24 07:18:03;;;;;;;16.10;13.20;;;;;;;24.79;68.33;100328.61;1759778;79;27303;-65
2021/06/24 07:20:30;;;;;;;19.42;14.90;;;;;;;24.73;68.66;100307.31;1676632;83;26455;-65
2021/06/24 07:22:56;;;;;;;18.80;14.20;;;;;;;24.70;68.83;100317.80;1687429;83;25876;-65
2021/06/24 07:25:23;;;;;;;17.05;14.73;;;;;;;24.66;68.82;100319.20;1656088;83;27222;-65
2021/06/24 07:27:51;;;;;;;17.52;14.53;;;;;;;24.57;68.74;100374.95;1687321;83;26005;-66
2021/06/24 07:30:41;;;;;;;17.57;14.40;;;;;;;24.42;69.03;100448.84;1683129;82;27335;-66
2021/06/24 07:33:08;;;;;;;18.17;14.50;;;;;;;24.19;69.33;100425.80;1658971;85;25890;-66
2021/06/24 07:35:34;;;;;;;17.70;14.80;;;;;;;23.98;69.73;100460.39;1656550;84;25554;-63
2021/06/24 07:38:01;;;;;;;22.40;14.20;;;;;;;23.80;70.23;100501.22;1660016;84;25888;-64
2021/06/24 07:44:27;;;;;;;10.00;6.03;;;;;;;23.39;70.88;100590.47;1665965;83;27561;-63
2021/06/24 07:46:56;;;;;;;12.73;5.90;;;;;;;22.82;71.05;100636.48;1675959;82;26206;-64
2021/06/24 07:49:23;;;;;;;8.47;4.00;;;;;;;22.24;71.61;100643.50;1681534;82;26356;-66
2021/06/24 07:51:50;;;;;;;8.15;4.00;;;;;;;21.74;71.94;100617.63;1680617;82;26446;-65
2021/06/24 07:54:17;;;;;;;8.88;3.22;;;;;;;21.31;72.14;100591.77;1690073;82;25836;-63
2021/06/24 07:56:43;;;;;;;12.00;3.20;;;;;;;20.98;73.21;100579.58;1682817;82;27344;-64
2021/06/24 07:59:12;;;;;;;7.58;3.27;;;;;;;20.66;73.58;100601.91;1688679;82;26350;-64
2021/06/24 08:01:39;;;;;;;7.85;3.87;;;;;;;20.40;74.28;100602.67;1679667;81;25848;-64
2021/06/24 08:04:06;;;;;;;7.05;3.08;;;;;;;20.19;75.18;100618.20;1686356;82;25895;-64
2021/06/24 08:06:33;;;;;;;6.35;2.80;;;;;;;19.94;75.54;100600.73;1683269;82;25766;-64
2021/06/24 08:08:59;;;;;;;7.62;2.95;;;;;;;19.76;76.05;100591.38;1686309;82;27312;-65
2021/06/24 08:11:26;;;;;;;7.47;3.20;;;;;;;19.59;76.50;100593.38;1755334;79;26963;-65
2021/06/24 08:13:52;;;;;;;9.70;3.42;;;;;;;19.47;77.03;100540.64;1749181;79;26418;-65
2021/06/24 08:16:19;;;;;;;10.20;3.75;;;;;;;19.40;77.60;100507.80;1716557;81;25834;-65
2021/06/24 08:18:46;;;;;;;9.85;4.15;;;;;;;19.37;78.35;100467.38;1761886;79;25790;-63
2021/06/24 08:21:12;;;;;;;15.80;8.63;;;;;;;19.37;78.73;100419.98;1761000;78;29466;-63
2021/06/24 08:23:39;;;;;;;18.00;8.90;;;;;;;19.35;79.02;100397.03;1775316;79;25915;-63
2021/06/24 08:26:06;;;;;;;14.80;8.13;;;;;;;19.34;79.37;100352.95;1769899;79;25858;-63
2021/06/24 08:28:32;;;;;;;10.93;4.55;;;;;;;19.34;79.60;100348.03;1762584;79;25752;-63
2021/06/24 08:31:00;;;;;;;7.70;4.28;;;;;;;19.34;79.99;100342.55;1759318;79;26524;-63
2021/06/24 08:33:27;;;;;;;12.78;4.83;;;;;;;19.36;80.11;100342.41;1727585;81;29514;-63
2021/06/24 08:35:53;;;;;;;9.90;4.47;;;;;;;19.35;80.15;100319.45;1761959;80;25793;-63
2021/06/24 08:38:20;;;;;;;11.40;4.67;;;;;;;19.31;80.12;100333.11;1763372;78;26479;-62
2021/06/24 08:40:46;;;;;;;13.65;4.58;;;;;;;19.27;80.17;100336.36;1769066;79;26635;-62
2021/06/24 08:43:13;;;;;;;7.62;4.47;;;;;;;19.25;80.38;100360.62;1776796;79;25871;-63
2021/06/24 08:45:40;;;;;;;12.43;4.95;;;;;;;19.22;80.65;100366.27;1763404;79;27311;-63
2021/06/24 08:48:13;;;;;;;10.00;4.65;;;;;;;19.20;80.86;100345.84;1761913;78;25814;-62
2021/06/24 08:50:47;;;;;;;13.88;5.97;;;;;;;19.17;81.17;100316.41;1722620;81;26515;-63
2021/06/24 08:53:17;;;;;;;7.55;4.78;;;;;;;19.15;81.61;100281.14;1725316;81;26184;-62
2021/06/24 08:55:46;;;;;;;15.32;5.67;;;;;;;19.17;82.07;100274.73;1728802;81;25905;-62
2021/06/24 08:58:14;;;;;;;11.57;5.57;;;;;;;19.20;82.41;100285.53;1715847;81;27735;-63
2021/06/24 09:00:40;;;;;;;11.20;5.60;;;;;;;19.20;82.62;100318.43;1759962;78;25897;-63
2021/06/24 09:03:18;;;;;;;12.18;6.67;;;;;;;19.23;82.94;100332.20;1762852;79;25785;-63
2021/06/24 09:05:52;;;;;;;13.85;6.58;;;;;;;19.27;83.14;100330.09;1768101;78;26657;-62
2021/06/24 09:08:47;;;;;;;12.28;6.35;;;;;;;19.29;83.52;100326.41;1763423;78;26040;-63
2021/06/24 09:11:24;;;;;;;11.68;6.55;;;;;;;19.34;83.88;100330.20;1778587;78;27292;-61
2021/06/24 09:14:16;;;;;;;15.00;7.42;;;;;;;19.35;83.86;100342.18;1769562;78;25830;-62
2021/06/24 09:16:41;;;;;;;14.33;7.67;;;;;;;19.36;84.00;100342.99;1778210;78;25786;-62
2021/06/24 09:19:27;;;;;;;14.83;7.35;;;;;;;19.37;84.08;100343.19;1778623;78;26588;-63
2021/06/24 09:22:12;;;;;;;11.08;7.12;;;;;;;19.38;84.47;100341.45;1772643;78;26412;-63
2021/06/24 09:24:43;;;;;;;14.45;6.30;;;;;;;19.36;84.20;100341.63;1780567;78;29493;-62
2021/06/24 09:27:26;;;;;;;12.20;7.15;;;;;;;19.34;84.58;100350.21;1781509;78;25978;-62
2021/06/24 09:30:07;;;;;;;17.32;6.65;;;;;;;19.36;84.71;100345.73;1769928;78;25752;-62
2021/06/24 09:32:45;;;;;;;9.20;6.65;;;;;;;19.35;84.58;100355.11;1772274;78;25963;-62
2021/06/24 09:35:29;;;;;;;12.98;7.20;;;;;;;19.35;84.96;100365.49;1769559;79;25829;-62
2021/06/24 09:38:15;;;;;;;10.60;6.33;;;;;;;19.39;85.25;100355.39;1773043;79;27320;-63
2021/06/24 09:40:52;;;;;;;12.95;6.55;;;;;;;19.46;85.60;100379.39;1756537;80;25755;-63
2021/06/24 09:43:36;;;;;;;12.03;6.45;;;;;;;19.58;86.41;100380.56;1760643;79;26961;-64
2021/06/24 09:46:14;;;;;;;7.35;5.78;;;;;;;19.72;86.86;100386.06;1759417;79;26046;-63
2021/06/24 09:48:59;;;;;;;8.58;5.83;;;;;;;19.80;86.72;100393.84;1765692;79;25571;-63
2021/06/24 09:51:34;;;;;;;9.60;6.67;;;;;;;19.86;86.20;100412.95;1723033;81;27295;-62
2021/06/24 09:54:17;;;;;;;12.28;6.03;;;;;;;19.96;86.75;100419.19;1732089;80;25800;-63
2021/06/24 09:56:55;;;;;;;13.00;6.37;;;;;;;20.01;86.57;100420.24;1777793;78;25860;-63
2021/06/24 09:59:21;;;;;;;9.15;5.97;;;;;;;20.13;87.31;100435.71;1776858;79;25887;-63
2021/06/24 10:01:50;;;;;;;8.78;5.15;;;;;;;20.19;86.63;100437.55;1776907;78;25954;-62
2021/06/24 10:04:19;;;;;;;;;;;;;;;20.20;86.07;100444.05;1777707;78;27378;-62
2021/06/24 10:06:49;;;;;;;9.43;5.45;;;;;;;20.26;86.46;100446.69;1785156;78;26098;-63
2021/06/24 10:09:20;;;;;;;14.18;6.05;;;;;;;20.30;86.55;100447.52;1774059;78;25791;-63
2021/06/24 10:11:48;;;;;;;10.93;5.85;;;;;;;20.42;87.49;100436.11;1777822;78;25844;-62
2021/06/24 10:14:15;;;;;;;12.30;5.70;;;;;;;20.59;88.37;100444.37;1770097;79;25916;-63
2021/06/24 10:16:44;;;;;;;8.48;5.40;;;;;;;20.71;87.90;100447.69;1765243;79;27478;-63
2021/06/24 10:19:14;;;;;;;12.63;5.37;;;;;;;20.80;87.90;100441.11;1716626;81;26697;-63
2021/06/24 10:21:42;;;;;;;12.07;6.00;;;;;;;20.95;88.43;100439.32;1722644;81;26029;-64
2021/06/24 10:24:17;;;;;;;11.18;5.25;;;;;;;21.11;89.13;100435.74;1728408;81;25836;-64
2021/06/24 10:26:47;;;;;;;10.18;5.87;;;;;;;21.29;88.65;100446.16;1755504;79;25856;-63
2021/06/24 10:29:19;;;;;;;10.35;6.30;;;;;;;21.50;90.26;100437.33;1761593;79;27447;-63
2021/06/24 10:31:52;;;;;;;10.38;5.37;;;;;;;21.88;92.53;100439.38;1751392;79;26126;-63
2021/06/24 10:34:21;;;;;;;9.15;6.05;;;;;;;22.22;92.38;100445.53;1766006;80;25896;-63
2021/06/24 10:37:14;;;;;;;7.10;4.58;;;;;;;22.45;91.52;100451.38;1765288;80;26662;-63
2021/06/24 10:39:42;;;;;;;8.65;4.62;;;;;;;22.67;90.13;100440.64;1767365;79;25521;-63
2021/06/24 10:42:15;;;;;;;11.33;5.45;;;;;;;22.86;89.11;100444.25;1763565;80;27175;-64
2021/06/24 10:45:06;;;;;;;8.98;4.20;;;;;;;23.01;89.00;100440.95;1730599;81;25866;-63
2021/06/24 10:47:37;;;;;;;9.05;4.72;;;;;;;23.30;90.88;100437.69;1717727;81;25722;-63
2021/06/24 10:50:32;;;;;;;10.95;5.17;;;;;;;23.47;89.69;100427.23;1716331;81;27166;-63
2021/06/24 10:53:24;;;;;;;8.38;5.12;;;;;;;23.58;89.02;100425.07;1725997;81;25763;-64
2021/06/24 10:55:51;;;;;;;6.87;5.03;;;;;;;23.83;90.39;100416.20;1771747;79;27390;-66
2021/06/24 10:58:34;;;;;;;11.22;4.87;;;;;;;24.27;92.46;100405.85;1756183;79;26639;-78
2021/06/24 11:01:03;;;;;;;9.03;4.87;;;;;;;24.65;91.77;100401.19;1754611;80;26039;-80
2021/06/24 11:03:37;;;;;;;6.87;4.08;;;;;;;25.08;90.82;100403.11;1761708;79;25766;-83
2021/06/24 11:06:19;;;;;;;8.90;4.53;;;;;;;25.33;86.83;100403.54;1756843;80;26504;-79
2021/06/24 11:08:46;;;;;;;8.25;5.00;;;;;;;25.68;87.22;100410.77;1762664;80;27308;-76
2021/06/24 11:11:17;;;;;;;7.47;4.45;;;;;;;26.14;86.42;100418.45;1763897;79;26757;-74
2021/06/24 11:13:50;;;;;;;12.55;4.75;;;;;;;26.51;84.49;100404.94;1765244;79;25695;-77
2021/06/24 11:16:25;;;;;;;17.20;4.83;;;;;;;26.97;84.27;100405.73;1764029;80;26351;-77
2021/06/24 11:19:10;;;;;;;11.15;4.70;;;;;;;27.43;82.54;100406.25;1761158;79;25930;-76
2021/06/24 11:21:49;;;;;;;6.28;3.50;;;;;;;27.79;80.71;100397.87;1763500;79;26757;-77
2021/06/24 11:24:19;;;;;;;8.08;3.83;;;;;;;28.29;78.13;100400.50;1778286;78;25785;-78
2021/06/24 11:26:53;;;;;;;9.85;4.15;;;;;;;28.79;76.75;100389.55;1777540;78;26003;-76
2021/06/24 11:32:12;;;;;;;10.08;4.97;;;;;;;29.70;74.54;100384.16;1779355;78;25911;-80
2021/06/24 11:35:01;;;;;;;11.90;4.47;;;;;;;30.10;72.66;100381.09;1760123;78;27299;-79
2021/06/24 11:37:31;;;;;;;9.13;3.80;;;;;;;30.49;70.22;100385.40;1777835;78;25836;-76
2021/06/24 11:40:01;;;;;;;8.00;3.40;;;;;;;30.84;68.65;100382.75;1778746;78;25813;-79
2021/06/24 11:42:41;;;;;;;8.03;4.00;;;;;;;31.14;66.06;100375.04;1790340;78;25897;-80
2021/06/24 11:45:08;;;;;;;7.65;3.42;;;;;;;31.31;65.50;100370.09;1781579;78;25737;-75
2021/06/24 11:47:37;;;;;;;9.03;4.33;;;;;;;31.46;63.53;100352.37;1717528;79;27406;-71
2021/06/24 12:03:04;;;;;;;6.42;2.95;;;;;;;32.27;59.61;100349.14;1776305;78;28039;-83
2021/06/24 12:04:33;;;;;;;4.83;2.95;;;;;;;32.42;58.01;100344.38;1752053;79;26566;-79
2021/06/24 12:07:08;;;;;;;5.67;3.47;;;;;;;32.39;57.04;100345.47;1765334;79;25860;-75
2021/06/24 12:09:49;;;;;;;6.83;3.12;;;;;;;32.49;56.65;100344.12;1722739;81;25957;-76
2021/06/24 12:12:22;;;;;;;6.10;3.33;;;;;;;32.65;56.59;100343.13;1761451;78;25882;-76
2021/06/24 12:14:51;;;;;;;6.60;3.40;;;;;;;32.87;56.21;100337.44;1760828;79;28095;-77
2021/06/24 12:17:39;;;;;;;7.30;3.42;;;;;;;33.04;55.33;100340.12;1758319;79;25952;-71
2021/06/24 12:20:15;;;;;;;8.78;3.47;;;;;;;33.04;54.31;100338.72;1710502;81;25887;-74
2021/06/24 12:22:53;;;;;;;6.53;3.50;;;;;;;33.11;54.18;100330.63;1678558;84;26777;-76
2021/06/24 12:25:26;;;;;;;7.35;3.10;;;;;;;33.11;53.30;100322.23;1676049;82;25908;-75
2021/06/24 12:27:57;;;;;;;6.62;3.58;;;;;;;33.33;53.25;100325.56;1714086;81;27318;-76
2021/06/24 12:30:40;;;;;;;7.67;3.27;;;;;;;33.56;53.51;100324.95;1696971;81;26502;-77
2021/06/24 12:33:13;;;;;;;7.15;3.30;;;;;;;33.76;52.16;100313.25;1702282;81;25840;-78
2021/06/24 12:35:49;;;;;;;9.30;3.47;;;;;;;33.87;51.73;100316.99;1702835;81;26767;-75
2021/06/24 12:38:20;;;;;;;5.22;2.98;;;;;;;33.98;51.79;100316.49;1714290;81;26403;-73
2021/06/24 12:40:53;;;;;;;6.90;3.37;;;;;;;34.11;51.62;100310.07;1709919;81;27405;-72
2021/06/24 12:43:25;;;;;;;7.95;3.27;;;;;;;34.12;50.80;100306.00;1723635;81;26211;-73
2021/06/24 12:45:58;;;;;;;7.22;3.47;;;;;;;34.24;49.60;100309.89;1716320;81;26190;-76
2021/06/24 12:48:39;;;;;;;7.65;3.27;;;;;;;34.36;49.20;100308.13;1694012;81;26483;-76
2021/06/24 12:51:23;;;;;;;5.20;3.10;;;;;;;34.51;49.24;100311.03;1708862;81;25837;-73
2021/06/24 12:53:55;;;;;;;8.00;3.80;;;;;;;34.61;48.52;100311.91;1717625;81;27404;-72
2021/06/24 12:56:33;;;;;;;6.35;3.05;;;;;;;34.72;48.04;100302.21;1704130;81;26021;-73
2021/06/24 12:59:08;;;;;;;;;;;;;;;34.82;47.21;100307.95;1696522;82;26458;-74
2021/06/24 13:01:42;;;;;;;7.65;3.33;;;;;;;34.88;46.51;100308.06;1715710;81;26384;-72
2021/06/24 13:04:11;;;;;;;11.30;3.42;;;;;;;34.93;46.39;100294.77;1717520;81;25539;-72
2021/06/24 13:06:43;;;;;;;8.98;3.70;;;;;;;34.87;46.71;100293.25;1718409;81;27341;-79
2021/06/24 13:09:14;;;;;;;6.80;3.65;;;;;;;34.89;46.74;100287.92;1721781;81;26497;-75
2021/06/24 13:11:51;;;;;;;10.03;3.70;;;;;;;34.86;46.23;100290.92;1713336;81;26280;-76
2021/06/24 13:14:27;;;;;;;5.28;3.55;;;;;;;34.86;46.46;100285.30;1714577;81;27718;-76
2021/06/24 13:17:09;;;;;;;7.42;3.22;;;;;;;34.83;45.99;100274.37;1714240;81;25771;-76
2021/06/24 13:19:38;;;;;;;9.70;3.77;;;;;;;34.90;46.08;100268.39;1711860;81;30821;-69
2021/06/24 13:22:12;;;;;;;17.10;4.90;;;;;;;34.93;45.63;100257.61;1724654;81;26131;-77
2021/06/24 13:24:51;;;;;;;9.23;4.55;;;;;;;34.95;45.53;100255.72;1724542;81;26195;-74
2021/06/24 13:27:27;;;;;;;10.35;3.85;;;;;;;34.93;44.95;100253.39;1714143;81;25706;-73
2021/06/24 13:30:02;;;;;;;14.38;5.50;;;;;;;34.93;44.95;100253.39;1706589;81;25745;-73
2021/06/24 13:32:45;;;;;;;8.78;3.95;;;;;;;34.88;45.18;100253.28;1702278;82;27335;-72
2021/06/24 13:35:19;;;;;;;7.85;3.95;;;;;;;34.89;44.33;100247.19;1702953;81;26584;-73
2021/06/24 13:38:06;;;;;;;9.38;4.35;;;;;;;34.92;44.76;100246.23;1717794;81;26161;-72
2021/06/24 13:40:42;;;;;;;6.28;3.95;;;;;;;35.01;44.77;100257.23;1721008;81;26370;-71
2021/06/24 13:43:12;;;;;;;5.83;3.80;;;;;;;34.91;44.35;100250.29;1708148;81;25871;-73
2021/06/24 13:45:40;;;;;;;10.60;3.67;;;;;;;34.79;44.62;100240.85;1716980;81;28006;-68
2021/06/24 13:48:08;;;;;;;4.87;4.00;;;;;;;34.79;44.62;100240.85;1721429;81;25819;-63
2021/06/24 13:50:34;;;;;;;7.05;4.12;;;;;;;34.69;44.64;100241.38;1721270;81;26568;-63
2021/06/24 13:53:01;;;;;;;8.05;4.40;;;;;;;34.37;44.79;100270.40;1719395;81;27759;-63
2021/06/24 13:55:38;;;;;;;8.75;4.25;;;;;;;34.02;45.05;100259.58;1677197;82;26233;-63
2021/06/24 13:57:57;;;;;;;9.40;4.40;;;;;;;34.02;45.05;100259.58;1699019;83;27449;-63
2021/06/24 14:00:24;;;;;;;10.68;5.10;;;;;;;33.74;45.12;100248.45;1718411;81;25962;-63
2021/06/24 14:02:50;;;;;;;15.68;5.47;;;;;;;33.49;45.46;100241.94;1699195;82;26882;-63
2021/06/24 14:05:18;;;;;;;10.03;5.03;;;;;;;33.25;45.77;100239.61;1698521;81;26527;-63
2021/06/24 14:07:45;;;;;;;7.10;4.67;;;;;;;32.99;46.17;100229.31;1720768;81;25693;-63
2021/06/24 14:10:13;;;;;;;23.12;6.33;;;;;;;32.69;46.53;100228.35;1711629;81;27422;-63
2021/06/24 14:12:39;;;;;;;12.30;5.60;;;;;;;32.43;47.07;100224.98;1707625;81;25947;-63
2021/06/24 14:15:08;;;;;;;12.70;5.80;;;;;;;32.21;47.17;100229.26;1715845;81;25780;-63
2021/06/24 14:17:34;;;;;;;12.95;6.83;;;;;;;31.97;47.59;100238.77;1700826;81;26414;-63
2021/06/24 14:20:01;;;;;;;8.95;5.95;;;;;;;31.71;47.87;100240.33;1706043;81;25862;-63
2021/06/24 14:22:28;;;;;;;7.08;5.45;;;;;;;31.44;48.45;100231.12;1709651;81;28138;-63
2021/06/24 14:24:54;;;;;;;9.63;6.05;;;;;;;31.19;48.95;100222.23;1707146;81;26358;-62
2021/06/24 14:27:21;;;;;;;11.90;6.15;;;;;;;30.93;49.17;100219.50;1677359;81;26464;-62
2021/06/24 14:29:47;;;;;;;9.20;5.62;;;;;;;30.68;49.43;100217.55;1702461;81;25905;-63
2021/06/24 14:32:13;;;;;;;35.40;9.53;;;;;;;30.45;50.13;100206.94;1704400;81;25716;-63
2021/06/24 14:34:40;;;;;;;22.17;6.83;;;;;;;30.25;50.60;100204.98;1700294;81;27315;-64
2021/06/24 14:37:07;;;;;;;15.00;5.97;;;;;;;30.05;51.04;100205.97;1698554;81;25811;-63
2021/06/24 14:39:33;;;;;;;16.73;5.87;;;;;;;29.87;51.49;100211.33;1689208;82;26454;-63
2021/06/24 14:41:59;;;;;;;11.22;5.28;;;;;;;29.69;52.04;100218.78;1684711;83;25760;-63
2021/06/24 14:44:26;;;;;;;10.60;4.83;;;;;;;29.51;52.56;100231.81;1695403;82;26338;-63
2021/06/24 14:46:52;;;;;;;29.25;7.55;;;;;;;29.34;52.99;100222.77;1707265;81;27340;-63
2021/06/24 14:49:19;;;;;;;45.10;14.05;;;;;;;29.17;53.63;100219.24;1715375;81;25743;-63
2021/06/24 14:51:46;;;;;;;93.05;17.92;;;;;;;29.01;54.06;100223.59;1691383;82;25819;-63
2021/06/24 14:54:13;;;;;;;49.85;14.60;;;;;;;28.89;54.41;100231.25;1720009;81;26098;-62
2021/06/24 14:56:39;;;;;;;39.88;10.55;;;;;;;28.75;55.04;100224.66;1717014;81;26171;-62
2021/06/24 14:59:07;;;;;;;21.93;7.55;;;;;;;28.62;55.48;100228.74;1713416;81;29406;-62
2021/06/24 15:01:34;;;;;;;118.17;18.30;;;;;;;28.48;55.81;100222.89;1696330;82;26618;-62
2021/06/24 15:04:01;;;;;;;107.60;15.95;;;;;;;28.38;56.23;100219.75;1715968;81;26419;-63
2021/06/24 15:06:27;;;;;;;67.25;13.25;;;;;;;28.28;56.43;100217.39;1715580;81;25922;-62
2021/06/24 15:08:54;;;;;;;31.42;8.08;;;;;;;28.16;57.06;100208.34;1704517;81;26686;-62
2021/06/24 15:11:20;;;;;;;23.45;6.45;;;;;;;28.05;57.20;100201.65;1711380;81;27371;-62
2021/06/24 15:13:46;;;;;;;22.87;12.65;;;;;;;27.93;57.44;100205.27;1698297;81;27787;-62
2021/06/24 15:16:13;;;;;;;21.65;9.65;;;;;;;27.82;57.86;100193.59;1718156;81;25741;-62
2021/06/24 15:18:40;;;;;;;15.25;6.90;;;;;;;27.73;58.32;100185.80;1705755;81;25873;-64
2021/06/24 15:21:06;;;;;;;13.85;6.47;;;;;;;27.64;58.55;100180.06;1709041;81;25711;-64
2021/06/24 15:23:34;;;;;;;14.40;6.85;;;;;;;27.56;58.99;100180.03;1684994;82;27339;-64
2021/06/24 15:26:03;;;;;;;10.75;6.20;;;;;;;27.47;59.25;100188.16;1693936;82;26265;-64
2021/06/24 15:28:30;;;;;;;10.85;6.15;;;;;;;27.38;59.78;100196.45;1700599;82;26444;-64
2021/06/24 15:31:00;;;;;;;7.65;5.47;;;;;;;27.30;59.87;100198.41;1691365;83;26322;-64
2021/06/24 15:33:26;;;;;;;;;;;;;;;27.21;60.37;100189.23;1663220;84;25740;-64
2021/06/24 15:35:53;;;;;;;11.00;5.25;;;;;;;27.13;60.72;100184.41;1722657;81;27399;-64
2021/06/24 15:38:19;;;;;;;9.15;5.28;;;;;;;27.06;60.86;100173.45;1701649;81;25678;-66
2021/06/24 15:40:46;;;;;;;6.90;4.87;;;;;;;27.01;60.90;100162.22;1711404;81;26230;-68
2021/06/24 15:43:13;;;;;;;9.45;5.08;;;;;;;26.97;61.20;100157.36;1726109;81;26711;-64
2021/06/24 15:45:40;;;;;;;11.75;5.92;;;;;;;26.92;61.45;100148.72;1707539;81;25903;-65
2021/06/24 15:48:08;;;;;;;7.20;4.78;;;;;;;26.87;61.61;100141.69;1715695;81;27297;-63
2021/06/24 15:50:36;;;;;;;12.13;4.95;;;;;;;26.81;61.61;100118.41;1692814;81;25875;-67
2021/06/24 15:53:04;;;;;;;11.03;5.35;;;;;;;26.78;61.61;100120.05;1711350;81;25701;-69
2021/06/24 15:55:40;;;;;;;7.65;4.95;;;;;;;26.76;61.85;100125.83;1701166;81;25940;-69
2021/06/24 15:58:11;;;;;;;6.30;4.12;;;;;;;26.71;61.92;100131.25;1702481;82;25810;-64
2021/06/24 16:00:39;;;;;;;6.47;4.37;;;;;;;26.65;62.02;100124.03;1711499;81;27402;-64
2021/06/24 16:03:06;;;;;;;9.30;4.95;;;;;;;26.60;62.27;100129.27;1718977;81;25832;-66
2021/06/24 16:05:35;;;;;;;8.90;4.92;;;;;;;26.56;62.33;100116.05;1728822;81;26376;-67
2021/06/24 16:08:02;;;;;;;9.50;4.87;;;;;;;26.54;62.53;100115.69;1704987;81;26312;-66
2021/06/24 16:10:30;;;;;;;13.08;5.42;;;;;;;26.50;62.63;100119.14;1709093;81;26138;-66
2021/06/24 16:12:56;;;;;;;11.50;5.33;;;;;;;26.45;62.72;100115.63;1710410;81;27873;-65
2021/06/24 16:15:23;;;;;;;8.15;4.75;;;;;;;26.43;62.82;100111.73;1716107;81;25862;-64
2021/06/24 16:17:49;;;;;;;14.18;4.83;;;;;;;26.42;62.82;100129.55;1716155;81;26276;-68
2021/06/24 16:20:19;;;;;;;7.97;4.95;;;;;;;26.41;63.04;100130.16;1712537;81;25665;-65
2021/06/24 16:22:48;;;;;;;17.67;5.55;;;;;;;26.40;63.31;100124.43;1715319;81;25495;-67
2021/06/24 16:25:16;;;;;;;8.53;4.70;;;;;;;26.40;63.34;100129.20;1718623;81;27300;-67
2021/06/24 16:27:46;;;;;;;12.07;4.87;;;;;;;26.36;63.41;100122.94;1708766;81;31185;-68
2021/06/24 16:30:19;;;;;;;7.50;4.97;;;;;;;26.32;63.50;100116.05;1713418;81;26613;-69
2021/06/24 16:32:52;;;;;;;15.00;4.55;;;;;;;26.27;63.90;100122.88;1703969;81;25691;-68
2021/06/24 16:35:15;;;;;;;10.15;3.80;;;;;;;26.23;63.79;100121.35;1712804;81;25580;-66
2021/06/24 16:37:42;;;;;;;5.78;3.92;;;;;;;26.17;63.91;100134.11;1708819;81;27359;-69
2021/06/24 16:40:10;;;;;;;7.83;4.30;;;;;;;26.11;64.07;100130.27;1716619;81;26676;-67
2021/06/24 16:42:36;;;;;;;8.25;3.95;;;;;;;26.06;64.33;100131.52;1731873;81;26583;-68
2021/06/24 16:45:06;;;;;;;8.25;4.30;;;;;;;26.02;64.63;100119.10;1722547;81;25930;-67
2021/06/24 16:47:33;;;;;;;9.00;3.72;;;;;;;26.00;64.85;100111.02;1682893;82;25918;-68
2021/06/24 16:49:59;;;;;;;15.10;9.40;;;;;;;25.94;64.80;100098.82;1708959;81;27252;-67
2021/06/24 16:52:25;;;;;;;10.65;5.37;;;;;;;25.91;65.00;100092.12;1709192;81;26406;-69
2021/06/24 16:54:52;;;;;;;15.32;4.75;;;;;;;25.85;65.11;100083.50;1717371;81;25892;-68
2021/06/24 16:57:19;;;;;;;9.25;4.10;;;;;;;25.83;65.21;100101.16;1706389;81;25758;-70
2021/06/24 16:59:47;;;;;;;7.55;3.65;;;;;;;25.80;65.26;100104.75;1703255;81;25741;-68
2021/06/24 17:02:13;;;;;;;12.30;6.33;;;;;;;25.78;65.11;100105.78;1701200;81;27313;-69
2021/06/24 17:04:49;;;;;;;7.90;4.45;;;;;;;25.75;65.21;100103.06;1703570;81;26400;-71
2021/06/24 17:07:18;;;;;;;10.50;4.42;;;;;;;25.73;65.37;100095.94;1718327;81;26518;-65
2021/06/24 17:09:47;;;;;;;7.97;4.35;;;;;;;25.69;65.40;100086.91;1711795;81;25810;-67
2021/06/24 17:12:15;;;;;;;5.90;4.30;;;;;;;25.67;65.58;100078.22;1665759;83;26724;-68
2021/06/24 17:14:43;;;;;;;9.33;4.93;;;;;;;25.63;65.75;100074.72;1705306;81;27315;-68
2021/06/24 17:17:09;;;;;;;7.78;4.70;;;;;;;25.61;65.72;100075.75;1705899;81;25756;-67
2021/06/24 17:19:37;;;;;;;9.05;4.50;;;;;;;25.57;65.80;100063.14;1696407;83;26021;-68
2021/06/24 17:22:05;;;;;;;9.85;4.62;;;;;;;25.53;65.93;100059.05;1711537;81;26404;-67
2021/06/24 17:24:32;;;;;;;6.67;4.50;;;;;;;25.50;65.99;100068.95;1711533;81;33194;-68